Time;durP1;ratioP1;P1;durP2;ratioP2;P2;SDS_P1;SDS_P2;PMS_P1;PMS_P2;Temp;Humidity;BMP_temperature;BMP_pressure;BME280_temperature;BME280_humidity;BME280_pressure;Samples;Min_cycle;Max_cycle;Signal;HPM_P1;HPM_P2
2022/10/22 00:02:26;;;;;;;8.63;4.07;;;;;;;;;;5045608;28;20185;-79
2022/10/22 00:04:53;;;;;;;4.13;2.20;;;;;;;;;;5051868;28;20204;-79
2022/10/22 00:07:20;;;;;;;5.13;3.13;;;;;;;;;;5058171;28;112881;-79
2022/10/22 00:09:46;;;;;;;5.10;2.90;;;;;;;;;;5058218;28;20629;-79
2022/10/22 00:12:14;;;;;;;5.80;2.53;;;;;;;;;;5051694;28;20300;-79
2022/10/22 00:14:40;;;;;;;6.67;3.40;;;;;;;;;;5052820;28;20691;-79
2022/10/22 00:17:06;;;;;;;3.37;2.63;;;;;;;;;;5052344;28;20181;-79
2022/10/22 00:19:32;;;;;;;4.33;2.33;;;;;;;;;;5033147;28;20170;-78
2022/10/22 00:21:58;;;;;;;3.93;1.97;;;;;;;;;;5047274;28;20193;-79
2022/10/22 00:24:25;;;;;;;4.43;2.20;;;;;;;;;;5052004;28;20236;-79
2022/10/22 00:26:51;;;;;;;4.83;1.80;;;;;;;;;;5053485;28;20217;-78
2022/10/22 00:29:18;;;;;;;4.90;2.67;;;;;;;;;;5054030;28;20199;-78
2022/10/22 00:31:48;;;;;;;2.90;2.03;;;;;;;;;;5051107;28;20209;-78
2022/10/22 00:34:18;;;;;;;3.10;2.07;;;;;;;;;;5044507;28;20193;-78
2022/10/22 00:36:45;;;;;;;4.23;2.03;;;;;;;;;;5054447;28;20672;-79
2022/10/22 00:39:14;;;;;;;4.63;2.00;;;;;;;;;;5054539;28;20213;-79
2022/10/22 00:41:41;;;;;;;3.60;2.00;;;;;;;;;;5046698;28;20190;-79
2022/10/22 00:44:07;;;;;;;2.63;1.73;;;;;;;;;;5042127;28;20198;-79
2022/10/22 00:46:33;;;;;;;4.73;1.73;;;;;;;;;;5045508;28;20236;-80
2022/10/22 00:49:02;;;;;;;3.90;1.70;;;;;;;;;;5045325;28;20198;-79
2022/10/22 00:51:29;;;;;;;4.07;1.83;;;;;;;;;;5051592;28;20199;-80
2022/10/22 00:53:59;;;;;;;4.23;1.80;;;;;;;;;;5052325;28;20245;-80
2022/10/22 00:56:25;;;;;;;2.47;1.60;;;;;;;;;;5049229;28;20657;-80
2022/10/22 00:58:53;;;;;;;3.90;1.70;;;;;;;;;;5053975;28;20194;-79
2022/10/22 01:01:24;;;;;;;4.40;1.90;;;;;;;;;;5043580;28;20232;-80
2022/10/22 01:03:50;;;;;;;2.27;1.60;;;;;;;;;;5053826;28;20207;-80
2022/10/22 01:06:33;;;;;;;3.87;1.50;;;;;;;;;;5053096;28;20213;-80
2022/10/22 01:08:59;;;;;;;2.37;1.40;;;;;;;;;;5051272;28;20193;-79
2022/10/22 01:11:43;;;;;;;1.67;1.30;;;;;;;;;;5053990;28;20216;-79
2022/10/22 01:14:36;;;;;;;2.93;1.40;;;;;;;;;;5051720;28;20223;-79
2022/10/22 01:17:12;;;;;;;8.53;1.50;;;;;;;;;;5037088;28;20242;-79
2022/10/22 01:19:54;;;;;;;3.53;1.33;;;;;;;;;;5048994;28;20245;-80
2022/10/22 01:22:27;;;;;;;3.17;1.70;;;;;;;;;;5035341;28;20256;-80
2022/10/22 01:25:12;;;;;;;1.60;1.50;;;;;;;;;;5058484;28;20848;-80
2022/10/22 01:27:41;;;;;;;3.57;1.50;;;;;;;;;;5046876;28;20227;-79
2022/10/22 01:30:09;;;;;;;2.43;1.50;;;;;;;;;;5051513;28;20652;-80
2022/10/22 01:32:41;;;;;;;2.30;1.40;;;;;;;;;;5053097;28;20218;-80
2022/10/22 01:35:09;;;;;;;3.57;1.50;;;;;;;;;;5050531;28;21812;-79
2022/10/22 01:37:38;;;;;;;1.47;1.20;;;;;;;;;;5044425;28;20190;-80
2022/10/22 01:40:05;;;;;;;2.23;1.40;;;;;;;;;;5043030;28;20186;-80
2022/10/22 01:42:31;;;;;;;2.40;1.50;;;;;;;;;;5049208;28;20183;-79
2022/10/22 01:44:57;;;;;;;1.57;1.30;;;;;;;;;;5049988;28;20666;-79
2022/10/22 01:47:31;;;;;;;4.40;1.70;;;;;;;;;;5043059;28;20190;-80
2022/10/22 01:50:17;;;;;;;1.30;1.20;;;;;;;;;;5050428;28;20583;-80
2022/10/22 01:52:53;;;;;;;3.33;1.40;;;;;;;;;;5047685;28;20304;-80
2022/10/22 01:55:22;;;;;;;3.80;1.30;;;;;;;;;;5052020;28;20722;-79
2022/10/22 01:57:53;;;;;;;2.07;1.40;;;;;;;;;;5049055;28;20773;-79
2022/10/22 02:00:19;;;;;;;2.13;1.20;;;;;;;;;;5064786;28;20213;-80
2022/10/22 02:02:57;;;;;;;3.37;1.30;;;;;;;;;;5052572;28;20257;-79
2022/10/22 02:05:26;;;;;;;2.80;1.20;;;;;;;;;;5049665;28;20212;-80
2022/10/22 02:08:01;;;;;;;1.37;1.20;;;;;;;;;;5042438;28;20700;-79
2022/10/22 02:10:29;;;;;;;2.20;1.13;;;;;;;;;;5052602;28;20264;-79
2022/10/22 02:12:56;;;;;;;1.17;1.00;;;;;;;;;;5041409;28;20241;-79
2022/10/22 02:15:23;;;;;;;1.87;1.20;;;;;;;;;;5022169;28;20277;-79
2022/10/22 02:17:50;;;;;;;3.03;1.10;;;;;;;;;;5049978;28;20185;-79
2022/10/22 02:20:22;;;;;;;1.57;1.10;;;;;;;;;;5051341;28;20174;-79
2022/10/22 02:22:49;;;;;;;1.13;1.00;;;;;;;;;;5059324;28;20181;-79
2022/10/22 02:25:16;;;;;;;1.10;1.00;;;;;;;;;;5058132;28;20212;-79
2022/10/22 02:27:44;;;;;;;3.77;1.43;;;;;;;;;;5053091;28;20184;-79
2022/10/22 02:30:13;;;;;;;3.37;1.20;;;;;;;;;;5050160;28;20202;-79
2022/10/22 02:32:42;;;;;;;2.10;1.00;;;;;;;;;;5051518;28;20288;-79
2022/10/22 02:35:11;;;;;;;1.67;1.00;;;;;;;;;;5050535;28;20202;-79
2022/10/22 02:37:38;;;;;;;1.37;1.10;;;;;;;;;;5047013;28;20170;-79
2022/10/22 02:40:04;;;;;;;1.57;1.27;;;;;;;;;;5031359;28;20186;-79
2022/10/22 02:42:30;;;;;;;2.33;1.10;;;;;;;;;;5045172;28;20206;-79
2022/10/22 02:44:56;;;;;;;1.80;1.23;;;;;;;;;;5038675;28;20214;-79
2022/10/22 02:47:22;;;;;;;2.13;0.90;;;;;;;;;;5039619;28;20197;-79
2022/10/22 02:49:49;;;;;;;1.67;1.20;;;;;;;;;;5040804;28;20182;-79
2022/10/22 02:52:15;;;;;;;2.53;1.20;;;;;;;;;;5049415;28;20222;-81
2022/10/22 02:54:41;;;;;;;2.67;1.37;;;;;;;;;;5031817;28;20214;-79
2022/10/22 02:57:07;;;;;;;1.30;1.20;;;;;;;;;;5048209;28;20814;-79
2022/10/22 02:59:33;;;;;;;4.00;1.20;;;;;;;;;;5025661;28;20244;-79
2022/10/22 03:01:59;;;;;;;1.50;1.10;;;;;;;;;;5049845;28;20188;-79
2022/10/22 03:04:26;;;;;;;4.60;1.40;;;;;;;;;;5050494;28;20261;-79
2022/10/22 03:06:52;;;;;;;2.03;1.10;;;;;;;;;;5036476;28;20202;-79
2022/10/22 03:09:18;;;;;;;1.60;1.20;;;;;;;;;;5045236;28;20526;-79
2022/10/22 03:11:44;;;;;;;1.90;1.30;;;;;;;;;;5045017;28;20282;-79
2022/10/22 03:14:10;;;;;;;1.17;1.07;;;;;;;;;;5047107;28;20229;-79
2022/10/22 03:16:37;;;;;;;1.80;1.03;;;;;;;;;;5039811;28;20186;-79
2022/10/22 03:19:03;;;;;;;1.20;1.10;;;;;;;;;;5047645;28;20272;-79
2022/10/22 03:21:37;;;;;;;2.90;1.20;;;;;;;;;;5050656;28;20182;-79
2022/10/22 03:24:05;;;;;;;3.30;1.20;;;;;;;;;;5034390;28;20406;-79
2022/10/22 03:26:32;;;;;;;2.27;1.10;;;;;;;;;;5047783;28;20183;-79
2022/10/22 03:28:59;;;;;;;2.27;1.30;;;;;;;;;;5035842;28;20189;-79
2022/10/22 03:31:25;;;;;;;2.27;1.20;;;;;;;;;;5046510;28;20221;-79
2022/10/22 03:33:52;;;;;;;2.07;1.03;;;;;;;;;;5051815;28;20295;-79
2022/10/22 03:36:19;;;;;;;1.37;1.27;;;;;;;;;;5052141;28;20205;-79
2022/10/22 03:38:45;;;;;;;1.67;1.30;;;;;;;;;;5048388;28;20657;-79
2022/10/22 03:41:11;;;;;;;4.10;1.30;;;;;;;;;;5058697;28;20182;-79
2022/10/22 03:43:39;;;;;;;3.37;1.23;;;;;;;;;;5055955;28;20203;-79
2022/10/22 03:46:05;;;;;;;1.10;1.00;;;;;;;;;;5055615;28;20184;-79
2022/10/22 03:48:32;;;;;;;2.50;1.10;;;;;;;;;;5047676;28;20194;-79
2022/10/22 03:50:58;;;;;;;1.10;0.93;;;;;;;;;;5046520;28;20198;-79
2022/10/22 03:53:24;;;;;;;2.43;1.00;;;;;;;;;;5051688;28;20190;-79
2022/10/22 03:55:50;;;;;;;1.73;1.10;;;;;;;;;;5029053;28;20187;-80
2022/10/22 03:58:16;;;;;;;2.00;0.90;;;;;;;;;;5049980;28;20201;-79
2022/10/22 04:00:43;;;;;;;2.10;0.90;;;;;;;;;;5052274;28;20180;-79
2022/10/22 04:03:09;;;;;;;1.17;0.90;;;;;;;;;;5039639;28;20280;-79
2022/10/22 04:05:35;;;;;;;1.43;1.00;;;;;;;;;;5051636;28;20182;-79
2022/10/22 04:08:01;;;;;;;2.57;0.90;;;;;;;;;;5048199;28;20214;-79
2022/10/22 04:10:27;;;;;;;3.10;0.90;;;;;;;;;;5037862;28;20424;-79
2022/10/22 04:12:53;;;;;;;0.83;0.83;;;;;;;;;;5050213;28;20206;-79
2022/10/22 04:15:19;;;;;;;1.27;0.90;;;;;;;;;;5040792;28;20210;-79
2022/10/22 04:17:45;;;;;;;1.27;0.80;;;;;;;;;;5053726;28;20415;-79
2022/10/22 04:20:11;;;;;;;0.97;0.80;;;;;;;;;;5053606;28;20429;-79
2022/10/22 04:22:38;;;;;;;0.93;0.80;;;;;;;;;;5055900;28;20654;-79
2022/10/22 04:25:04;;;;;;;0.80;0.70;;;;;;;;;;5055379;28;20269;-79
2022/10/22 04:27:31;;;;;;;1.03;0.80;;;;;;;;;;5044933;28;20218;-79
2022/10/22 04:29:57;;;;;;;0.73;0.70;;;;;;;;;;5044165;28;20639;-79
2022/10/22 04:32:24;;;;;;;1.53;0.70;;;;;;;;;;5053548;28;20209;-79
2022/10/22 04:34:50;;;;;;;1.50;0.83;;;;;;;;;;5053264;28;20684;-79
2022/10/22 04:37:17;;;;;;;1.27;1.00;;;;;;;;;;5052240;28;20178;-79
2022/10/22 04:39:43;;;;;;;1.70;0.97;;;;;;;;;;5035201;28;20175;-79
2022/10/22 04:42:09;;;;;;;0.90;0.90;;;;;;;;;;5043326;28;20283;-80
2022/10/22 04:44:35;;;;;;;2.57;1.20;;;;;;;;;;5055242;28;20220;-79
2022/10/22 04:47:01;;;;;;;2.77;0.90;;;;;;;;;;5043830;28;20186;-80
2022/10/22 04:49:27;;;;;;;1.57;1.00;;;;;;;;;;5049005;28;20174;-80
2022/10/22 04:51:54;;;;;;;1.30;0.83;;;;;;;;;;5053759;28;20213;-80
2022/10/22 04:54:20;;;;;;;1.87;1.00;;;;;;;;;;5051188;28;20206;-79
2022/10/22 04:56:46;;;;;;;2.13;0.80;;;;;;;;;;5047104;28;20430;-79
2022/10/22 04:59:12;;;;;;;1.20;0.90;;;;;;;;;;5048406;28;20185;-80
2022/10/22 05:01:40;;;;;;;0.80;0.70;;;;;;;;;;5036284;28;20174;-79
2022/10/22 05:04:07;;;;;;;1.93;0.80;;;;;;;;;;5052743;28;20205;-79
2022/10/22 05:06:34;;;;;;;0.93;0.80;;;;;;;;;;5035282;28;20185;-80
2022/10/22 05:09:02;;;;;;;1.23;0.90;;;;;;;;;;5046502;28;20178;-79
2022/10/22 05:11:30;;;;;;;0.80;0.80;;;;;;;;;;5047714;28;20198;-79
2022/10/22 05:13:56;;;;;;;1.93;1.10;;;;;;;;;;5053964;28;20742;-80
2022/10/22 05:16:23;;;;;;;2.07;1.03;;;;;;;;;;5053324;28;20182;-79
2022/10/22 05:18:49;;;;;;;1.93;0.90;;;;;;;;;;5036320;28;20189;-79
2022/10/22 05:21:16;;;;;;;1.10;0.93;;;;;;;;;;5044742;28;20198;-79
2022/10/22 05:23:43;;;;;;;1.00;0.80;;;;;;;;;;5040274;28;20201;-79
2022/10/22 05:26:10;;;;;;;1.07;0.93;;;;;;;;;;5050017;28;20189;-79
2022/10/22 05:28:36;;;;;;;1.00;0.90;;;;;;;;;;5052537;28;20185;-80
2022/10/22 05:31:03;;;;;;;4.60;0.90;;;;;;;;;;5053727;28;20201;-79
2022/10/22 05:33:30;;;;;;;1.50;1.00;;;;;;;;;;5050676;28;20657;-79
2022/10/22 05:35:57;;;;;;;2.80;1.23;;;;;;;;;;5052892;28;20186;-79
2022/10/22 05:38:23;;;;;;;0.80;0.80;;;;;;;;;;5049996;28;20178;-79
2022/10/22 05:40:59;;;;;;;1.47;1.00;;;;;;;;;;5033075;28;20225;-78
2022/10/22 05:43:25;;;;;;;1.50;1.00;;;;;;;;;;5050345;28;20455;-78
2022/10/22 05:45:51;;;;;;;1.80;0.93;;;;;;;;;;5044410;28;20547;-79
2022/10/22 05:48:17;;;;;;;0.90;0.90;;;;;;;;;;5042710;28;20182;-79
2022/10/22 05:50:45;;;;;;;1.67;0.80;;;;;;;;;;5050417;28;20221;-80
2022/10/22 05:53:11;;;;;;;2.77;1.03;;;;;;;;;;5052149;28;20441;-79
2022/10/22 05:55:40;;;;;;;1.77;1.00;;;;;;;;;;5043666;28;20178;-79
2022/10/22 05:58:06;;;;;;;0.90;0.90;;;;;;;;;;5050070;28;20257;-79
2022/10/22 06:00:33;;;;;;;1.10;0.93;;;;;;;;;;5046530;28;20166;-79
2022/10/22 06:03:00;;;;;;;2.93;1.20;;;;;;;;;;5052697;28;20217;-79
2022/10/22 06:05:26;;;;;;;2.47;1.00;;;;;;;;;;5051159;28;20205;-79
2022/10/22 06:07:53;;;;;;;1.73;1.00;;;;;;;;;;5049815;28;20201;-80
2022/10/22 06:10:20;;;;;;;1.10;1.00;;;;;;;;;;5049428;28;20212;-79
2022/10/22 06:12:46;;;;;;;2.43;1.40;;;;;;;;;;5052126;28;20285;-79
2022/10/22 06:15:13;;;;;;;4.40;3.37;;;;;;;;;;5050520;28;20209;-79
2022/10/22 06:17:39;;;;;;;6.40;5.67;;;;;;;;;;5047666;28;20669;-80
2022/10/22 06:20:06;;;;;;;6.23;4.30;;;;;;;;;;5051528;28;20559;-79
2022/10/22 06:22:32;;;;;;;6.83;4.50;;;;;;;;;;5051550;28;20202;-79
2022/10/22 06:24:58;;;;;;;5.27;4.20;;;;;;;;;;5051652;28;20700;-79
2022/10/22 06:27:24;;;;;;;3.67;2.40;;;;;;;;;;5048449;28;20189;-80
2022/10/22 06:29:51;;;;;;;2.77;1.30;;;;;;;;;;5041875;28;20182;-80
2022/10/22 06:32:17;;;;;;;2.10;1.23;;;;;;;;;;5027570;28;20232;-79
2022/10/22 06:34:43;;;;;;;1.67;0.90;;;;;;;;;;5049758;28;20201;-79
2022/10/22 06:37:10;;;;;;;3.23;2.10;;;;;;;;;;5043730;28;20178;-79
2022/10/22 06:39:36;;;;;;;4.20;2.83;;;;;;;;;;5042411;28;20338;-79
2022/10/22 06:42:02;;;;;;;2.73;1.97;;;;;;;;;;5046779;28;20190;-79
2022/10/22 06:44:33;;;;;;;1.57;1.20;;;;;;;;;;5049545;28;20250;-79
2022/10/22 06:46:59;;;;;;;2.00;1.80;;;;;;;;;;5039617;28;20209;-79
2022/10/22 06:49:26;;;;;;;4.60;3.10;;;;;;;;;;5041951;28;20265;-79
2022/10/22 06:51:52;;;;;;;2.60;1.83;;;;;;;;;;5050306;28;20213;-79
2022/10/22 06:54:19;;;;;;;3.40;2.40;;;;;;;;;;5051440;28;20202;-79
2022/10/22 06:56:45;;;;;;;2.53;1.90;;;;;;;;;;5050166;28;20192;-79
2022/10/22 06:59:11;;;;;;;2.70;2.00;;;;;;;;;;5040836;28;20266;-79
2022/10/22 07:01:38;;;;;;;3.00;2.13;;;;;;;;;;5057412;28;20188;-79
2022/10/22 07:04:04;;;;;;;2.53;1.60;;;;;;;;;;5057658;28;20205;-79
2022/10/22 07:06:31;;;;;;;1.20;1.10;;;;;;;;;;5061958;28;20186;-78
2022/10/22 07:08:57;;;;;;;2.23;1.10;;;;;;;;;;5042702;28;20177;-79
2022/10/22 07:11:24;;;;;;;3.00;1.00;;;;;;;;;;5053884;28;20205;-79
2022/10/22 07:13:51;;;;;;;1.40;0.90;;;;;;;;;;5051354;28;20211;-82
2022/10/22 07:16:17;;;;;;;2.83;1.03;;;;;;;;;;5052728;28;20681;-78
2022/10/22 07:18:44;;;;;;;2.97;1.30;;;;;;;;;;5043301;28;20254;-80
2022/10/22 07:21:11;;;;;;;1.27;1.00;;;;;;;;;;5042355;28;20702;-79
2022/10/22 07:23:38;;;;;;;1.70;1.20;;;;;;;;;;5033066;28;20190;-80
2022/10/22 07:26:06;;;;;;;1.37;1.20;;;;;;;;;;5037185;28;20291;-77
2022/10/22 07:28:33;;;;;;;3.30;1.10;;;;;;;;;;5041550;28;20174;-77
2022/10/22 07:30:59;;;;;;;1.60;1.10;;;;;;;;;;5040930;28;20179;-78
2022/10/22 07:33:26;;;;;;;1.20;1.10;;;;;;;;;;5048651;28;20184;-78
2022/10/22 07:35:57;;;;;;;1.63;1.00;;;;;;;;;;5050036;28;20261;-78
2022/10/22 07:38:23;;;;;;;1.77;1.33;;;;;;;;;;5030540;28;20182;-78
2022/10/22 07:40:50;;;;;;;1.53;1.13;;;;;;;;;;5047336;28;20209;-78
2022/10/22 07:43:16;;;;;;;1.30;1.10;;;;;;;;;;5043533;28;20178;-80
2022/10/22 07:45:43;;;;;;;3.20;1.20;;;;;;;;;;5038555;28;20269;-83
2022/10/22 07:48:09;;;;;;;2.20;1.07;;;;;;;;;;5027173;28;20186;-78
2022/10/22 07:50:35;;;;;;;2.23;1.30;;;;;;;;;;5049321;28;20261;-78
2022/10/22 07:53:01;;;;;;;2.50;1.70;;;;;;;;;;5048691;28;20236;-78
2022/10/22 07:55:27;;;;;;;2.00;1.03;;;;;;;;;;5048833;28;20258;-78
2022/10/22 07:57:54;;;;;;;3.63;1.17;;;;;;;;;;5049313;28;20182;-81
2022/10/22 08:00:20;;;;;;;1.80;1.10;;;;;;;;;;5047129;28;20676;-81
2022/10/22 08:02:47;;;;;;;0.97;0.87;;;;;;;;;;5057155;28;20275;-80
2022/10/22 08:05:13;;;;;;;2.20;1.40;;;;;;;;;;5047402;28;20215;-80
2022/10/22 08:07:40;;;;;;;1.10;1.00;;;;;;;;;;5045215;28;20607;-81
2022/10/22 08:10:07;;;;;;;2.00;1.10;;;;;;;;;;5045608;28;20262;-80
2022/10/22 08:12:33;;;;;;;1.00;0.90;;;;;;;;;;5048384;28;20693;-81
2022/10/22 08:14:59;;;;;;;1.67;1.40;;;;;;;;;;5045614;28;20204;-81
2022/10/22 08:17:26;;;;;;;1.20;1.00;;;;;;;;;;5064328;28;20230;-81
2022/10/22 08:19:52;;;;;;;1.67;1.10;;;;;;;;;;5050958;28;20248;-81
2022/10/22 08:22:18;;;;;;;1.67;1.07;;;;;;;;;;5059915;28;20289;-81
2022/10/22 08:24:45;;;;;;;1.27;1.00;;;;;;;;;;5059301;28;20286;-81
2022/10/22 08:27:11;;;;;;;0.80;0.80;;;;;;;;;;5042864;28;20726;-81
2022/10/22 08:29:38;;;;;;;4.13;1.00;;;;;;;;;;5041922;28;20228;-81
2022/10/22 08:32:04;;;;;;;1.43;0.80;;;;;;;;;;5045063;28;20670;-81
2022/10/22 08:34:31;;;;;;;0.93;0.80;;;;;;;;;;5036262;28;20229;-81
2022/10/22 08:36:57;;;;;;;1.10;0.83;;;;;;;;;;5031145;28;20200;-81
2022/10/22 08:39:23;;;;;;;0.80;0.80;;;;;;;;;;5050976;28;20205;-80
2022/10/22 08:41:53;;;;;;;1.53;0.87;;;;;;;;;;5043457;28;20601;-81
2022/10/22 08:44:37;;;;;;;1.10;0.80;;;;;;;;;;5045230;28;20220;-81
2022/10/22 08:47:03;;;;;;;1.90;1.00;;;;;;;;;;5047568;28;20189;-81
2022/10/22 08:49:32;;;;;;;1.57;1.07;;;;;;;;;;5045326;28;20567;-81
2022/10/22 08:51:59;;;;;;;0.80;0.80;;;;;;;;;;5046402;28;20252;-81
2022/10/22 08:54:31;;;;;;;1.40;0.90;;;;;;;;;;5041926;28;20195;-81
2022/10/22 08:57:06;;;;;;;2.27;0.90;;;;;;;;;;5033905;28;20177;-81
2022/10/22 08:59:56;;;;;;;2.77;1.00;;;;;;;;;;5045534;28;20232;-81
2022/10/22 09:02:30;;;;;;;0.80;0.80;;;;;;;;;;5044388;28;20223;-75
2022/10/22 09:05:16;;;;;;;1.00;0.90;;;;;;;;;;5043608;28;20288;-77
2022/10/22 09:07:47;;;;;;;1.27;0.83;;;;;;;;;;5023824;28;20215;-78
2022/10/22 09:10:13;;;;;;;0.80;0.80;;;;;;;;;;5037407;28;20212;-78
2022/10/22 09:12:40;;;;;;;2.27;1.00;;;;;;;;;;5038223;28;20201;-78
2022/10/22 09:15:11;;;;;;;1.83;1.10;;;;;;;;;;5040622;28;20194;-78
2022/10/22 09:17:47;;;;;;;1.77;1.20;;;;;;;;;;5035411;28;20190;-77
2022/10/22 09:20:24;;;;;;;2.67;1.30;;;;;;;;;;5038335;28;20837;-77
2022/10/22 09:23:01;;;;;;;1.57;1.10;;;;;;;;;;5037777;28;20173;-77
2022/10/22 09:25:28;;;;;;;1.50;1.00;;;;;;;;;;5036288;28;20284;-77
2022/10/22 09:27:57;;;;;;;0.97;0.97;;;;;;;;;;5038081;28;21501;-77
2022/10/22 09:30:28;;;;;;;0.80;0.80;;;;;;;;;;5038057;28;20189;-77
2022/10/22 09:33:00;;;;;;;1.63;1.40;;;;;;;;;;5035750;28;20220;-78
2022/10/22 09:35:26;;;;;;;1.40;1.13;;;;;;;;;;5036250;28;20224;-78
2022/10/22 09:37:53;;;;;;;1.20;1.00;;;;;;;;;;5037826;28;20178;-78
2022/10/22 09:40:21;;;;;;;1.87;1.10;;;;;;;;;;5036547;28;20202;-82
2022/10/22 09:42:47;;;;;;;1.73;1.00;;;;;;;;;;5040814;28;20548;-82
2022/10/22 09:45:25;;;;;;;2.57;1.20;;;;;;;;;;5042071;28;20768;-77
2022/10/22 09:48:03;;;;;;;1.63;1.40;;;;;;;;;;5037366;28;20183;-78
2022/10/22 09:50:37;;;;;;;2.07;1.47;;;;;;;;;;5036226;28;20595;-78
2022/10/22 09:53:05;;;;;;;1.67;1.40;;;;;;;;;;5040896;28;20258;-78
2022/10/22 09:55:32;;;;;;;2.33;1.20;;;;;;;;;;5042257;28;20218;-81
2022/10/22 09:57:59;;;;;;;1.30;1.20;;;;;;;;;;5029254;28;20192;-73
2022/10/22 10:00:26;;;;;;;1.47;1.37;;;;;;;;;;5039423;28;20178;-77
2022/10/22 10:02:56;;;;;;;1.60;1.30;;;;;;;;;;5037776;28;20220;-76
2022/10/22 10:05:29;;;;;;;1.97;1.40;;;;;;;;;;5036945;28;20233;-77
2022/10/22 10:07:57;;;;;;;2.23;1.20;;;;;;;;;;5041473;28;20196;-78
2022/10/22 10:10:45;;;;;;;3.73;1.10;;;;;;;;;;5037261;28;20216;-78
2022/10/22 10:13:23;;;;;;;2.00;1.10;;;;;;;;;;5039257;28;20217;-78
2022/10/22 10:15:54;;;;;;;1.63;1.27;;;;;;;;;;5063936;28;20224;-78
2022/10/22 10:18:40;;;;;;;4.20;1.37;;;;;;;;;;5041262;28;20602;-78
2022/10/22 10:21:09;;;;;;;1.30;1.20;;;;;;;;;;5040340;28;20262;-78
2022/10/22 10:23:46;;;;;;;3.50;1.27;;;;;;;;;;5038251;28;20277;-78
2022/10/22 10:26:18;;;;;;;6.00;1.70;;;;;;;;;;5033164;28;20193;-77
2022/10/22 10:28:44;;;;;;;1.67;1.30;;;;;;;;;;5040669;28;20206;-78
2022/10/22 10:31:17;;;;;;;1.63;1.17;;;;;;;;;;5033879;28;20301;-78
2022/10/22 10:33:43;;;;;;;1.50;1.30;;;;;;;;;;5034932;28;20210;-78
2022/10/22 10:36:15;;;;;;;1.20;1.10;;;;;;;;;;5033257;28;20617;-77
2022/10/22 10:38:45;;;;;;;1.90;1.43;;;;;;;;;;5035073;28;20212;-77
2022/10/22 10:41:30;;;;;;;1.97;1.20;;;;;;;;;;5036986;28;20278;-77
2022/10/22 10:44:05;;;;;;;1.97;1.17;;;;;;;;;;5040824;28;20256;-78
2022/10/22 10:46:43;;;;;;;1.30;1.10;;;;;;;;;;5046148;28;20205;-78
2022/10/22 10:49:16;;;;;;;2.43;1.20;;;;;;;;;;5045946;28;20701;-78
2022/10/22 10:52:04;;;;;;;2.40;1.10;;;;;;;;;;5042679;28;20296;-78
2022/10/22 10:54:35;;;;;;;1.30;1.10;;;;;;;;;;5042972;28;20278;-78
2022/10/22 10:57:16;;;;;;;1.53;1.17;;;;;;;;;;5041368;28;20178;-78
2022/10/22 10:59:42;;;;;;;3.83;1.10;;;;;;;;;;5045747;28;20673;-77
2022/10/22 11:02:27;;;;;;;2.80;1.20;;;;;;;;;;5042822;28;20277;-77
2022/10/22 11:05:05;;;;;;;3.97;1.20;;;;;;;;;;5042280;28;20208;-77
2022/10/22 11:07:36;;;;;;;1.77;1.10;;;;;;;;;;5040581;28;20204;-78
2022/10/22 11:10:06;;;;;;;1.30;1.07;;;;;;;;;;5044523;28;20182;-78
2022/10/22 11:12:35;;;;;;;1.83;1.00;;;;;;;;;;5057276;28;20202;-78
2022/10/22 11:15:06;;;;;;;1.33;1.00;;;;;;;;;;5043540;28;20213;-78
2022/10/22 11:17:52;;;;;;;3.07;1.27;;;;;;;;;;5043564;28;20178;-79
2022/10/22 11:20:21;;;;;;;3.07;1.10;;;;;;;;;;5053798;28;20205;-78
2022/10/22 11:23:00;;;;;;;1.77;1.10;;;;;;;;;;5039076;28;20182;-78
2022/10/22 11:25:31;;;;;;;4.57;1.33;;;;;;;;;;5042517;28;20193;-78
2022/10/22 11:28:01;;;;;;;1.93;1.20;;;;;;;;;;5053334;28;20564;-78
2022/10/22 11:30:29;;;;;;;4.83;1.20;;;;;;;;;;5042390;28;22099;-78
2022/10/22 11:32:57;;;;;;;3.90;1.07;;;;;;;;;;5039304;28;20229;-78
2022/10/22 11:35:34;;;;;;;2.87;1.20;;;;;;;;;;5039302;28;20695;-78
2022/10/22 11:38:01;;;;;;;1.90;1.03;;;;;;;;;;5039760;28;20166;-78
2022/10/22 11:40:46;;;;;;;2.30;1.00;;;;;;;;;;5038991;28;20530;-78
2022/10/22 11:43:26;;;;;;;2.40;1.10;;;;;;;;;;5039481;28;20420;-78
2022/10/22 11:45:57;;;;;;;2.07;1.17;;;;;;;;;;5041769;28;20271;-78
2022/10/22 11:48:26;;;;;;;1.60;1.00;;;;;;;;;;5044066;28;20179;-78
2022/10/22 11:50:58;;;;;;;2.13;1.20;;;;;;;;;;5045553;28;20194;-78
2022/10/22 11:53:25;;;;;;;2.43;1.20;;;;;;;;;;5047043;28;20208;-78
2022/10/22 11:55:54;;;;;;;3.47;1.47;;;;;;;;;;5053811;28;20244;-78
2022/10/22 11:58:29;;;;;;;2.33;1.10;;;;;;;;;;5042635;28;20183;-78
2022/10/22 12:01:16;;;;;;;1.73;1.10;;;;;;;;;;5040732;28;20166;-78
2022/10/22 12:03:49;;;;;;;2.60;1.10;;;;;;;;;;5042071;28;20208;-78
2022/10/22 12:06:15;;;;;;;2.00;1.30;;;;;;;;;;5042184;28;20202;-78
2022/10/22 12:08:46;;;;;;;1.40;1.00;;;;;;;;;;5062691;28;20190;-78
2022/10/22 12:11:22;;;;;;;1.47;1.10;;;;;;;;;;5041772;28;20384;-78
2022/10/22 12:13:51;;;;;;;3.53;1.27;;;;;;;;;;5062281;28;20305;-78
2022/10/22 12:16:19;;;;;;;1.73;1.13;;;;;;;;;;5042244;28;20182;-78
2022/10/22 12:18:46;;;;;;;2.80;1.30;;;;;;;;;;5041639;28;20194;-78
2022/10/22 12:21:15;;;;;;;2.13;1.30;;;;;;;;;;5042720;28;20240;-77
2022/10/22 12:23:43;;;;;;;2.40;1.20;;;;;;;;;;5039293;28;20206;-78
2022/10/22 12:26:23;;;;;;;2.03;1.20;;;;;;;;;;5042394;28;20182;-78
2022/10/22 12:28:49;;;;;;;2.30;1.20;;;;;;;;;;5040689;28;20190;-78
2022/10/22 12:31:16;;;;;;;5.13;1.40;;;;;;;;;;5052501;28;20183;-78
2022/10/22 12:33:42;;;;;;;3.47;1.20;;;;;;;;;;5052023;28;20210;-78
2022/10/22 12:36:15;;;;;;;2.00;1.20;;;;;;;;;;5040179;28;20212;-78
2022/10/22 12:38:46;;;;;;;1.80;0.97;;;;;;;;;;5038669;28;20193;-78
2022/10/22 12:41:12;;;;;;;1.83;1.03;;;;;;;;;;5041709;28;20210;-78
2022/10/22 12:43:39;;;;;;;2.23;1.20;;;;;;;;;;5044442;28;20209;-78
2022/10/22 12:46:12;;;;;;;5.47;1.83;;;;;;;;;;5042272;28;20186;-79
2022/10/22 12:48:39;;;;;;;1.70;1.20;;;;;;;;;;5042429;28;20182;-79
2022/10/22 12:51:08;;;;;;;3.47;1.30;;;;;;;;;;5043805;28;20503;-79
2022/10/22 12:53:53;;;;;;;1.87;1.27;;;;;;;;;;5043958;28;20634;-78
2022/10/22 12:56:31;;;;;;;4.30;1.33;;;;;;;;;;5038748;28;20251;-79
2022/10/22 12:58:59;;;;;;;3.33;1.27;;;;;;;;;;5043649;28;20237;-79
2022/10/22 13:01:31;;;;;;;3.00;1.10;;;;;;;;;;5046074;28;20185;-79
2022/10/22 13:04:06;;;;;;;1.87;1.13;;;;;;;;;;5049198;28;20209;-78
2022/10/22 13:06:35;;;;;;;4.13;1.10;;;;;;;;;;5044028;28;20219;-79
2022/10/22 13:09:01;;;;;;;2.83;1.30;;;;;;;;;;5041570;28;20186;-79
2022/10/22 13:11:34;;;;;;;2.03;1.07;;;;;;;;;;5040090;28;20214;-78
2022/10/22 13:14:01;;;;;;;1.23;1.03;;;;;;;;;;5036995;28;20195;-79
2022/10/22 13:16:28;;;;;;;2.80;1.17;;;;;;;;;;5033118;28;20182;-79
2022/10/22 13:18:55;;;;;;;2.33;1.20;;;;;;;;;;5042215;28;20189;-79
2022/10/22 13:21:35;;;;;;;3.13;1.40;;;;;;;;;;5041107;28;20587;-79
2022/10/22 13:24:02;;;;;;;3.27;1.30;;;;;;;;;;5041741;28;20227;-78
2022/10/22 13:26:33;;;;;;;2.20;1.10;;;;;;;;;;5042720;28;20269;-79
2022/10/22 13:29:00;;;;;;;2.60;1.43;;;;;;;;;;5040828;28;20189;-79
2022/10/22 13:31:27;;;;;;;2.10;1.13;;;;;;;;;;5039652;28;20183;-78
2022/10/22 13:33:55;;;;;;;3.30;1.50;;;;;;;;;;5038023;28;20213;-79
2022/10/22 13:36:22;;;;;;;3.27;1.20;;;;;;;;;;5042913;28;20184;-79
2022/10/22 13:38:49;;;;;;;2.80;1.20;;;;;;;;;;5040967;28;20186;-79
2022/10/22 13:41:19;;;;;;;3.17;1.47;;;;;;;;;;5040042;28;20231;-78
2022/10/22 13:43:46;;;;;;;1.77;1.10;;;;;;;;;;5039964;28;20223;-78
2022/10/22 13:46:12;;;;;;;1.40;1.10;;;;;;;;;;5050457;28;20187;-78
2022/10/22 13:48:38;;;;;;;1.97;1.50;;;;;;;;;;5036599;28;20186;-79
2022/10/22 13:51:07;;;;;;;3.73;1.43;;;;;;;;;;5041666;28;20182;-79
2022/10/22 13:53:33;;;;;;;3.70;1.40;;;;;;;;;;5042943;28;20735;-78
2022/10/22 13:55:59;;;;;;;4.53;1.87;;;;;;;;;;5040762;28;20186;-78
2022/10/22 13:58:25;;;;;;;3.63;2.10;;;;;;;;;;5043380;28;20180;-78
2022/10/22 14:00:55;;;;;;;4.27;2.13;;;;;;;;;;5043203;28;20185;-79
2022/10/22 14:03:23;;;;;;;4.57;2.43;;;;;;;;;;5040783;28;20715;-78
2022/10/22 14:05:49;;;;;;;3.80;2.20;;;;;;;;;;5030447;28;20585;-79
2022/10/22 14:08:16;;;;;;;6.03;2.27;;;;;;;;;;5042217;28;20721;-78
2022/10/22 14:10:43;;;;;;;4.67;2.60;;;;;;;;;;5042160;28;20282;-78
2022/10/22 14:13:13;;;;;;;5.03;2.30;;;;;;;;;;5043902;28;20209;-80
2022/10/22 14:15:39;;;;;;;5.03;1.90;;;;;;;;;;5040709;28;20192;-78
2022/10/22 14:18:06;;;;;;;2.70;1.63;;;;;;;;;;5041819;28;20185;-78
2022/10/22 14:20:34;;;;;;;2.30;1.60;;;;;;;;;;5053806;28;20255;-78
2022/10/22 14:23:02;;;;;;;5.60;1.83;;;;;;;;;;5042203;28;20178;-78
2022/10/22 14:25:30;;;;;;;3.97;1.57;;;;;;;;;;5040468;28;20808;-79
2022/10/22 14:27:56;;;;;;;3.33;1.80;;;;;;;;;;5036683;28;20211;-78
2022/10/22 14:30:23;;;;;;;3.27;1.43;;;;;;;;;;5040401;28;20252;-79
2022/10/22 14:32:49;;;;;;;2.23;1.60;;;;;;;;;;5039579;28;20198;-78
2022/10/22 14:35:17;;;;;;;3.50;1.73;;;;;;;;;;5054235;28;20240;-78
2022/10/22 14:37:43;;;;;;;2.40;1.60;;;;;;;;;;5051474;28;20185;-78
2022/10/22 14:40:12;;;;;;;2.23;1.60;;;;;;;;;;5046895;28;20284;-79
2022/10/22 14:42:42;;;;;;;3.23;1.67;;;;;;;;;;5041978;28;20671;-79
2022/10/22 14:45:22;;;;;;;3.30;1.57;;;;;;;;;;5037663;28;20788;-78
2022/10/22 14:47:49;;;;;;;2.60;1.70;;;;;;;;;;5053527;28;20645;-79
2022/10/22 14:50:16;;;;;;;3.97;1.93;;;;;;;;;;5039007;28;20390;-79
2022/10/22 14:52:42;;;;;;;4.77;2.00;;;;;;;;;;5053209;28;20295;-79
2022/10/22 14:55:13;;;;;;;5.23;1.67;;;;;;;;;;5037167;28;20256;-78